sensor_id;sensor_type;location;lat;lon;timestamp;P1;durP1;ratioP1;P2;durP2;ratioP2
4420;SDS011;11824;51.178;13.546;2023-02-28T00:01:07;14.80;;;4.23;;
4420;SDS011;11824;51.178;13.546;2023-02-28T00:03:34;6.00;;;3.00;;
4420;SDS011;11824;51.178;13.546;2023-02-28T00:06:02;1.77;;;1.67;;
4420;SDS011;11824;51.178;13.546;2023-02-28T00:08:30;4.63;;;3.17;;
4420;SDS011;11824;51.178;13.546;2023-02-28T00:11:00;5.43;;;2.50;;
4420;SDS011;11824;51.178;13.546;2023-02-28T00:13:28;7.80;;;3.57;;
4420;SDS011;11824;51.178;13.546;2023-02-28T00:15:59;12.70;;;3.60;;
4420;SDS011;11824;51.178;13.546;2023-02-28T00:18:28;4.40;;;3.40;;
4420;SDS011;11824;51.178;13.546;2023-02-28T00:20:56;4.10;;;2.93;;
4420;SDS011;11824;51.178;13.546;2023-02-28T00:23:24;6.77;;;3.83;;
4420;SDS011;11824;51.178;13.546;2023-02-28T00:25:53;5.77;;;3.30;;
4420;SDS011;11824;51.178;13.546;2023-02-28T00:28:20;6.90;;;3.20;;
4420;SDS011;11824;51.178;13.546;2023-02-28T00:30:48;9.00;;;3.43;;
4420;SDS011;11824;51.178;13.546;2023-02-28T00:33:16;5.80;;;3.27;;
4420;SDS011;11824;51.178;13.546;2023-02-28T00:35:43;6.23;;;2.90;;
4420;SDS011;11824;51.178;13.546;2023-02-28T00:38:12;4.33;;;3.90;;
4420;SDS011;11824;51.178;13.546;2023-02-28T00:40:39;8.83;;;4.20;;
4420;SDS011;11824;51.178;13.546;2023-02-28T00:43:07;10.13;;;2.93;;
4420;SDS011;11824;51.178;13.546;2023-02-28T00:45:34;6.33;;;3.80;;
4420;SDS011;11824;51.178;13.546;2023-02-28T00:48:02;6.77;;;2.70;;
4420;SDS011;11824;51.178;13.546;2023-02-28T00:50:29;2.67;;;1.93;;
4420;SDS011;11824;51.178;13.546;2023-02-28T00:52:57;4.80;;;3.20;;
4420;SDS011;11824;51.178;13.546;2023-02-28T00:55:24;5.50;;;3.70;;
4420;SDS011;11824;51.178;13.546;2023-02-28T00:57:51;6.10;;;3.20;;
4420;SDS011;11824;51.178;13.546;2023-02-28T01:00:19;8.27;;;4.37;;
4420;SDS011;11824;51.178;13.546;2023-02-28T01:02:47;5.00;;;3.30;;
4420;SDS011;11824;51.178;13.546;2023-02-28T01:05:14;6.90;;;3.50;;
4420;SDS011;11824;51.178;13.546;2023-02-28T01:07:42;4.63;;;3.37;;
4420;SDS011;11824;51.178;13.546;2023-02-28T01:10:10;7.83;;;4.30;;
4420;SDS011;11824;51.178;13.546;2023-02-28T01:12:39;8.43;;;4.03;;
4420;SDS011;11824;51.178;13.546;2023-02-28T01:15:06;9.13;;;3.70;;
4420;SDS011;11824;51.178;13.546;2023-02-28T01:17:36;12.90;;;4.67;;
4420;SDS011;11824;51.178;13.546;2023-02-28T01:20:04;8.23;;;4.80;;
4420;SDS011;11824;51.178;13.546;2023-02-28T01:22:32;6.40;;;4.20;;
4420;SDS011;11824;51.178;13.546;2023-02-28T01:25:00;5.53;;;4.13;;
4420;SDS011;11824;51.178;13.546;2023-02-28T01:27:27;6.53;;;3.97;;
4420;SDS011;11824;51.178;13.546;2023-02-28T01:29:55;6.37;;;4.33;;
4420;SDS011;11824;51.178;13.546;2023-02-28T01:32:22;8.20;;;4.60;;
4420;SDS011;11824;51.178;13.546;2023-02-28T01:34:50;6.33;;;4.13;;
4420;SDS011;11824;51.178;13.546;2023-02-28T01:37:18;7.23;;;3.60;;
4420;SDS011;11824;51.178;13.546;2023-02-28T01:39:45;6.70;;;4.53;;
4420;SDS011;11824;51.178;13.546;2023-02-28T01:42:12;7.17;;;4.50;;
4420;SDS011;11824;51.178;13.546;2023-02-28T01:44:59;5.77;;;3.63;;
4420;SDS011;11824;51.178;13.546;2023-02-28T01:47:31;9.50;;;3.97;;
4420;SDS011;11824;51.178;13.546;2023-02-28T01:50:02;7.43;;;4.00;;
4420;SDS011;11824;51.178;13.546;2023-02-28T01:52:33;7.90;;;4.70;;
4420;SDS011;11824;51.178;13.546;2023-02-28T01:55:02;4.67;;;3.50;;
4420;SDS011;11824;51.178;13.546;2023-02-28T01:57:34;10.43;;;4.30;;
4420;SDS011;11824;51.178;13.546;2023-02-28T02:00:05;12.27;;;4.67;;
4420;SDS011;11824;51.178;13.546;2023-02-28T02:02:35;12.60;;;6.10;;
4420;SDS011;11824;51.178;13.546;2023-02-28T02:05:04;12.60;;;5.47;;
4420;SDS011;11824;51.178;13.546;2023-02-28T02:07:35;17.23;;;5.33;;
4420;SDS011;11824;51.178;13.546;2023-02-28T02:10:06;10.90;;;4.90;;
4420;SDS011;11824;51.178;13.546;2023-02-28T02:12:46;11.73;;;7.73;;
4420;SDS011;11824;51.178;13.546;2023-02-28T02:15:34;17.77;;;4.73;;
4420;SDS011;11824;51.178;13.546;2023-02-28T02:18:07;9.70;;;4.90;;
4420;SDS011;11824;51.178;13.546;2023-02-28T02:20:54;6.27;;;4.50;;
4420;SDS011;11824;51.178;13.546;2023-02-28T02:23:58;8.67;;;4.37;;
4420;SDS011;11824;51.178;13.546;2023-02-28T02:26:55;8.57;;;4.40;;
4420;SDS011;11824;51.178;13.546;2023-02-28T02:29:48;5.50;;;4.40;;
4420;SDS011;11824;51.178;13.546;2023-02-28T02:35:55;11.47;;;5.23;;
4420;SDS011;11824;51.178;13.546;2023-02-28T02:38:29;7.80;;;3.63;;
4420;SDS011;11824;51.178;13.546;2023-02-28T02:41:03;9.50;;;5.30;;
4420;SDS011;11824;51.178;13.546;2023-02-28T02:43:36;9.50;;;5.13;;
4420;SDS011;11824;51.178;13.546;2023-02-28T02:46:08;6.07;;;4.30;;
4420;SDS011;11824;51.178;13.546;2023-02-28T02:48:40;10.43;;;4.73;;
4420;SDS011;11824;51.178;13.546;2023-02-28T02:51:11;8.77;;;4.97;;
4420;SDS011;11824;51.178;13.546;2023-02-28T02:53:42;8.03;;;4.60;;
4420;SDS011;11824;51.178;13.546;2023-02-28T02:56:14;7.53;;;3.57;;
4420;SDS011;11824;51.178;13.546;2023-02-28T02:58:45;6.23;;;3.73;;
4420;SDS011;11824;51.178;13.546;2023-02-28T03:01:16;9.77;;;5.07;;
4420;SDS011;11824;51.178;13.546;2023-02-28T03:03:54;5.83;;;4.07;;
4420;SDS011;11824;51.178;13.546;2023-02-28T03:06:24;10.63;;;5.40;;
4420;SDS011;11824;51.178;13.546;2023-02-28T03:08:51;10.27;;;4.80;;
4420;SDS011;11824;51.178;13.546;2023-02-28T03:11:19;9.63;;;5.07;;
4420;SDS011;11824;51.178;13.546;2023-02-28T03:13:59;10.63;;;5.93;;
4420;SDS011;11824;51.178;13.546;2023-02-28T03:19:42;10.33;;;4.57;;
4420;SDS011;11824;51.178;13.546;2023-02-28T03:22:26;7.40;;;4.90;;
4420;SDS011;11824;51.178;13.546;2023-02-28T03:25:24;4.57;;;3.90;;
4420;SDS011;11824;51.178;13.546;2023-02-28T03:28:02;5.33;;;4.70;;
4420;SDS011;11824;51.178;13.546;2023-02-28T03:30:36;8.43;;;4.03;;
4420;SDS011;11824;51.178;13.546;2023-02-28T03:33:08;7.47;;;3.83;;
4420;SDS011;11824;51.178;13.546;2023-02-28T03:35:40;10.83;;;5.50;;
4420;SDS011;11824;51.178;13.546;2023-02-28T03:38:13;5.77;;;3.50;;
4420;SDS011;11824;51.178;13.546;2023-02-28T03:40:45;18.03;;;4.80;;
4420;SDS011;11824;51.178;13.546;2023-02-28T03:43:18;6.67;;;4.50;;
4420;SDS011;11824;51.178;13.546;2023-02-28T03:45:48;7.83;;;4.63;;
4420;SDS011;11824;51.178;13.546;2023-02-28T03:48:18;7.17;;;4.17;;
4420;SDS011;11824;51.178;13.546;2023-02-28T03:50:49;10.67;;;4.57;;
4420;SDS011;11824;51.178;13.546;2023-02-28T03:53:21;9.27;;;5.13;;
4420;SDS011;11824;51.178;13.546;2023-02-28T03:55:52;10.20;;;4.60;;
4420;SDS011;11824;51.178;13.546;2023-02-28T03:58:24;11.50;;;5.40;;
4420;SDS011;11824;51.178;13.546;2023-02-28T04:00:57;10.90;;;5.07;;
4420;SDS011;11824;51.178;13.546;2023-02-28T04:03:33;16.77;;;9.00;;
4420;SDS011;11824;51.178;13.546;2023-02-28T04:06:01;10.27;;;5.60;;
4420;SDS011;11824;51.178;13.546;2023-02-28T04:08:30;12.47;;;6.23;;
4420;SDS011;11824;51.178;13.546;2023-02-28T04:10:58;10.60;;;5.53;;
4420;SDS011;11824;51.178;13.546;2023-02-28T04:13:29;14.97;;;5.13;;
4420;SDS011;11824;51.178;13.546;2023-02-28T04:15:57;37.60;;;7.97;;
4420;SDS011;11824;51.178;13.546;2023-02-28T04:18:24;28.03;;;10.57;;
4420;SDS011;11824;51.178;13.546;2023-02-28T04:20:51;13.30;;;6.47;;
4420;SDS011;11824;51.178;13.546;2023-02-28T04:23:19;11.97;;;5.70;;
4420;SDS011;11824;51.178;13.546;2023-02-28T04:25:47;10.40;;;5.43;;
4420;SDS011;11824;51.178;13.546;2023-02-28T04:28:16;18.00;;;5.43;;
4420;SDS011;11824;51.178;13.546;2023-02-28T04:30:43;10.80;;;4.53;;
4420;SDS011;11824;51.178;13.546;2023-02-28T04:33:11;14.83;;;5.27;;
4420;SDS011;11824;51.178;13.546;2023-02-28T04:35:38;14.90;;;5.13;;
4420;SDS011;11824;51.178;13.546;2023-02-28T04:38:05;10.80;;;5.50;;
4420;SDS011;11824;51.178;13.546;2023-02-28T04:40:33;26.10;;;6.70;;
4420;SDS011;11824;51.178;13.546;2023-02-28T04:43:01;9.10;;;5.43;;
4420;SDS011;11824;51.178;13.546;2023-02-28T04:45:29;14.00;;;5.40;;
4420;SDS011;11824;51.178;13.546;2023-02-28T04:47:57;13.87;;;5.60;;
4420;SDS011;11824;51.178;13.546;2023-02-28T04:50:25;10.13;;;5.73;;
4420;SDS011;11824;51.178;13.546;2023-02-28T04:52:52;8.90;;;5.43;;
4420;SDS011;11824;51.178;13.546;2023-02-28T04:55:20;11.37;;;6.03;;
4420;SDS011;11824;51.178;13.546;2023-02-28T04:57:47;15.63;;;5.43;;
4420;SDS011;11824;51.178;13.546;2023-02-28T05:00:15;14.87;;;5.63;;
4420;SDS011;11824;51.178;13.546;2023-02-28T05:02:43;11.67;;;6.00;;
4420;SDS011;11824;51.178;13.546;2023-02-28T05:05:10;16.23;;;5.70;;
4420;SDS011;11824;51.178;13.546;2023-02-28T05:07:43;15.93;;;5.40;;
4420;SDS011;11824;51.178;13.546;2023-02-28T05:10:11;15.40;;;7.60;;
4420;SDS011;11824;51.178;13.546;2023-02-28T05:12:38;14.73;;;4.83;;
4420;SDS011;11824;51.178;13.546;2023-02-28T05:15:06;10.07;;;5.23;;
4420;SDS011;11824;51.178;13.546;2023-02-28T05:17:35;8.70;;;5.03;;
4420;SDS011;11824;51.178;13.546;2023-02-28T05:20:03;13.20;;;5.57;;
4420;SDS011;11824;51.178;13.546;2023-02-28T05:22:40;12.27;;;5.57;;
4420;SDS011;11824;51.178;13.546;2023-02-28T05:25:08;9.30;;;6.20;;
4420;SDS011;11824;51.178;13.546;2023-02-28T05:27:39;17.67;;;6.33;;
4420;SDS011;11824;51.178;13.546;2023-02-28T05:30:06;14.50;;;6.03;;
4420;SDS011;11824;51.178;13.546;2023-02-28T05:32:36;19.00;;;7.37;;
4420;SDS011;11824;51.178;13.546;2023-02-28T05:35:04;13.10;;;6.10;;
4420;SDS011;11824;51.178;13.546;2023-02-28T05:37:32;11.77;;;6.70;;
4420;SDS011;11824;51.178;13.546;2023-02-28T05:39:59;19.00;;;7.13;;
4420;SDS011;11824;51.178;13.546;2023-02-28T05:42:26;15.17;;;7.00;;
4420;SDS011;11824;51.178;13.546;2023-02-28T05:44:54;14.97;;;7.23;;
4420;SDS011;11824;51.178;13.546;2023-02-28T05:47:21;24.87;;;8.03;;
4420;SDS011;11824;51.178;13.546;2023-02-28T05:49:49;15.30;;;8.70;;
4420;SDS011;11824;51.178;13.546;2023-02-28T05:52:16;31.70;;;11.17;;
4420;SDS011;11824;51.178;13.546;2023-02-28T05:54:44;10.17;;;5.63;;
4420;SDS011;11824;51.178;13.546;2023-02-28T05:57:12;20.07;;;7.97;;
4420;SDS011;11824;51.178;13.546;2023-02-28T05:59:49;19.07;;;6.70;;
4420;SDS011;11824;51.178;13.546;2023-02-28T06:02:17;14.60;;;6.20;;
4420;SDS011;11824;51.178;13.546;2023-02-28T06:04:44;33.03;;;13.13;;
4420;SDS011;11824;51.178;13.546;2023-02-28T06:07:12;9.37;;;5.93;;
4420;SDS011;11824;51.178;13.546;2023-02-28T06:09:40;13.83;;;6.20;;
4420;SDS011;11824;51.178;13.546;2023-02-28T06:12:07;17.63;;;6.90;;
4420;SDS011;11824;51.178;13.546;2023-02-28T06:14:36;14.13;;;6.90;;
4420;SDS011;11824;51.178;13.546;2023-02-28T06:17:03;26.83;;;12.43;;
4420;SDS011;11824;51.178;13.546;2023-02-28T06:19:30;12.23;;;6.70;;
4420;SDS011;11824;51.178;13.546;2023-02-28T06:21:59;11.83;;;5.40;;
4420;SDS011;11824;51.178;13.546;2023-02-28T06:24:27;19.07;;;6.07;;
4420;SDS011;11824;51.178;13.546;2023-02-28T06:26:55;13.13;;;6.63;;
4420;SDS011;11824;51.178;13.546;2023-02-28T06:29:24;25.77;;;12.37;;
4420;SDS011;11824;51.178;13.546;2023-02-28T06:31:51;27.50;;;14.30;;
4420;SDS011;11824;51.178;13.546;2023-02-28T06:34:19;23.53;;;9.87;;
4420;SDS011;11824;51.178;13.546;2023-02-28T06:36:46;16.70;;;9.87;;
4420;SDS011;11824;51.178;13.546;2023-02-28T06:39:16;21.57;;;8.97;;
4420;SDS011;11824;51.178;13.546;2023-02-28T06:41:45;18.20;;;9.97;;
4420;SDS011;11824;51.178;13.546;2023-02-28T06:44:21;20.40;;;8.60;;
4420;SDS011;11824;51.178;13.546;2023-02-28T06:46:49;21.33;;;7.23;;
4420;SDS011;11824;51.178;13.546;2023-02-28T06:49:17;19.17;;;8.77;;
4420;SDS011;11824;51.178;13.546;2023-02-28T06:51:44;24.20;;;9.57;;
4420;SDS011;11824;51.178;13.546;2023-02-28T06:54:12;24.63;;;11.50;;
4420;SDS011;11824;51.178;13.546;2023-02-28T06:56:39;18.97;;;9.07;;
4420;SDS011;11824;51.178;13.546;2023-02-28T06:59:07;16.43;;;8.23;;
4420;SDS011;11824;51.178;13.546;2023-02-28T07:01:35;17.40;;;9.73;;
4420;SDS011;11824;51.178;13.546;2023-02-28T07:04:02;17.90;;;8.80;;
4420;SDS011;11824;51.178;13.546;2023-02-28T07:06:31;19.03;;;8.57;;
4420;SDS011;11824;51.178;13.546;2023-02-28T07:08:58;17.27;;;8.70;;
4420;SDS011;11824;51.178;13.546;2023-02-28T07:11:26;20.10;;;8.50;;
4420;SDS011;11824;51.178;13.546;2023-02-28T07:13:55;16.17;;;8.97;;
4420;SDS011;11824;51.178;13.546;2023-02-28T07:16:24;21.93;;;9.50;;
4420;SDS011;11824;51.178;13.546;2023-02-28T07:18:52;18.27;;;9.33;;
4420;SDS011;11824;51.178;13.546;2023-02-28T07:21:19;26.40;;;11.63;;
4420;SDS011;11824;51.178;13.546;2023-02-28T07:23:47;21.30;;;9.90;;
4420;SDS011;11824;51.178;13.546;2023-02-28T07:26:14;18.67;;;9.17;;
4420;SDS011;11824;51.178;13.546;2023-02-28T07:28:44;17.10;;;8.40;;
4420;SDS011;11824;51.178;13.546;2023-02-28T07:31:13;17.43;;;9.73;;
4420;SDS011;11824;51.178;13.546;2023-02-28T07:33:41;28.97;;;10.10;;
4420;SDS011;11824;51.178;13.546;2023-02-28T07:36:09;16.30;;;8.47;;
4420;SDS011;11824;51.178;13.546;2023-02-28T07:38:39;11.47;;;6.70;;
4420;SDS011;11824;51.178;13.546;2023-02-28T07:41:07;16.97;;;8.10;;
4420;SDS011;11824;51.178;13.546;2023-02-28T07:43:35;17.50;;;9.47;;
4420;SDS011;11824;51.178;13.546;2023-02-28T07:46:03;18.10;;;8.10;;
4420;SDS011;11824;51.178;13.546;2023-02-28T07:48:31;17.40;;;8.80;;
4420;SDS011;11824;51.178;13.546;2023-02-28T07:50:59;16.30;;;8.73;;
4420;SDS011;11824;51.178;13.546;2023-02-28T07:53:28;13.13;;;6.70;;
4420;SDS011;11824;51.178;13.546;2023-02-28T07:55:55;15.80;;;7.63;;
4420;SDS011;11824;51.178;13.546;2023-02-28T07:58:24;12.20;;;7.77;;
4420;SDS011;11824;51.178;13.546;2023-02-28T08:00:52;19.03;;;10.20;;
4420;SDS011;11824;51.178;13.546;2023-02-28T08:03:20;21.00;;;9.53;;
4420;SDS011;11824;51.178;13.546;2023-02-28T08:05:48;17.83;;;9.83;;
4420;SDS011;11824;51.178;13.546;2023-02-28T08:08:16;14.67;;;9.03;;
4420;SDS011;11824;51.178;13.546;2023-02-28T08:10:43;16.70;;;8.23;;
4420;SDS011;11824;51.178;13.546;2023-02-28T08:13:11;20.87;;;9.87;;
4420;SDS011;11824;51.178;13.546;2023-02-28T08:15:39;20.50;;;11.37;;
4420;SDS011;11824;51.178;13.546;2023-02-28T08:18:07;15.17;;;9.73;;
4420;SDS011;11824;51.178;13.546;2023-02-28T08:20:35;19.07;;;9.27;;
4420;SDS011;11824;51.178;13.546;2023-02-28T08:23:02;15.97;;;9.47;;
4420;SDS011;11824;51.178;13.546;2023-02-28T08:25:30;14.60;;;8.70;;
4420;SDS011;11824;51.178;13.546;2023-02-28T08:27:58;19.23;;;9.53;;
4420;SDS011;11824;51.178;13.546;2023-02-28T08:30:25;14.70;;;8.07;;
4420;SDS011;11824;51.178;13.546;2023-02-28T08:32:52;17.67;;;9.93;;
4420;SDS011;11824;51.178;13.546;2023-02-28T08:35:20;22.73;;;11.60;;
4420;SDS011;11824;51.178;13.546;2023-02-28T08:37:48;18.37;;;8.97;;
4420;SDS011;11824;51.178;13.546;2023-02-28T08:40:16;13.07;;;6.90;;
4420;SDS011;11824;51.178;13.546;2023-02-28T08:42:45;15.27;;;8.60;;
4420;SDS011;11824;51.178;13.546;2023-02-28T08:45:13;18.90;;;8.20;;
4420;SDS011;11824;51.178;13.546;2023-02-28T08:47:41;11.73;;;7.37;;
4420;SDS011;11824;51.178;13.546;2023-02-28T08:50:08;19.37;;;9.57;;
4420;SDS011;11824;51.178;13.546;2023-02-28T08:52:36;17.50;;;8.77;;
4420;SDS011;11824;51.178;13.546;2023-02-28T08:55:04;16.27;;;10.77;;
4420;SDS011;11824;51.178;13.546;2023-02-28T08:57:32;24.27;;;8.47;;
4420;SDS011;11824;51.178;13.546;2023-02-28T09:00:00;18.20;;;9.23;;
4420;SDS011;11824;51.178;13.546;2023-02-28T09:02:29;16.80;;;10.97;;
4420;SDS011;11824;51.178;13.546;2023-02-28T09:04:57;20.10;;;10.77;;
4420;SDS011;11824;51.178;13.546;2023-02-28T09:07:24;22.17;;;11.67;;
4420;SDS011;11824;51.178;13.546;2023-02-28T09:09:52;17.13;;;10.10;;
4420;SDS011;11824;51.178;13.546;2023-02-28T09:12:23;14.00;;;9.90;;
4420;SDS011;11824;51.178;13.546;2023-02-28T09:14:51;19.53;;;9.90;;
4420;SDS011;11824;51.178;13.546;2023-02-28T09:17:20;29.47;;;10.87;;
4420;SDS011;11824;51.178;13.546;2023-02-28T09:19:47;15.10;;;10.37;;
4420;SDS011;11824;51.178;13.546;2023-02-28T09:22:15;18.17;;;10.00;;
4420;SDS011;11824;51.178;13.546;2023-02-28T09:24:42;14.73;;;9.90;;
4420;SDS011;11824;51.178;13.546;2023-02-28T09:27:10;19.03;;;9.57;;
4420;SDS011;11824;51.178;13.546;2023-02-28T09:29:37;12.77;;;6.00;;
4420;SDS011;11824;51.178;13.546;2023-02-28T09:32:04;8.83;;;5.10;;
4420;SDS011;11824;51.178;13.546;2023-02-28T09:34:32;10.57;;;5.50;;
4420;SDS011;11824;51.178;13.546;2023-02-28T09:37:02;7.97;;;5.37;;
4420;SDS011;11824;51.178;13.546;2023-02-28T09:39:29;8.33;;;4.70;;
4420;SDS011;11824;51.178;13.546;2023-02-28T09:41:57;8.27;;;5.10;;
4420;SDS011;11824;51.178;13.546;2023-02-28T09:44:26;13.60;;;5.40;;
4420;SDS011;11824;51.178;13.546;2023-02-28T09:46:57;3.13;;;2.47;;
4420;SDS011;11824;51.178;13.546;2023-02-28T09:49:30;10.70;;;5.27;;
4420;SDS011;11824;51.178;13.546;2023-02-28T09:52:05;13.90;;;4.80;;
4420;SDS011;11824;51.178;13.546;2023-02-28T09:54:35;10.67;;;5.97;;
4420;SDS011;11824;51.178;13.546;2023-02-28T09:57:08;11.53;;;5.23;;
4420;SDS011;11824;51.178;13.546;2023-02-28T09:59:56;5.70;;;3.77;;
4420;SDS011;11824;51.178;13.546;2023-02-28T10:05:49;8.50;;;2.90;;
4420;SDS011;11824;51.178;13.546;2023-02-28T10:08:21;5.77;;;3.40;;
4420;SDS011;11824;51.178;13.546;2023-02-28T10:10:51;7.47;;;4.70;;
4420;SDS011;11824;51.178;13.546;2023-02-28T10:13:23;10.03;;;4.13;;
4420;SDS011;11824;51.178;13.546;2023-02-28T10:15:55;15.83;;;8.20;;
4420;SDS011;11824;51.178;13.546;2023-02-28T10:18:26;15.43;;;6.67;;
4420;SDS011;11824;51.178;13.546;2023-02-28T10:20:57;18.53;;;6.40;;
4420;SDS011;11824;51.178;13.546;2023-02-28T10:23:27;12.87;;;5.60;;
4420;SDS011;11824;51.178;13.546;2023-02-28T10:25:58;9.33;;;3.83;;
4420;SDS011;11824;51.178;13.546;2023-02-28T10:28:29;8.73;;;4.80;;
4420;SDS011;11824;51.178;13.546;2023-02-28T10:30:57;9.47;;;6.03;;
4420;SDS011;11824;51.178;13.546;2023-02-28T10:33:27;9.90;;;4.90;;
4420;SDS011;11824;51.178;13.546;2023-02-28T10:35:57;10.20;;;5.70;;
4420;SDS011;11824;51.178;13.546;2023-02-28T10:38:27;7.37;;;3.40;;
4420;SDS011;11824;51.178;13.546;2023-02-28T10:41:03;13.23;;;6.47;;
4420;SDS011;11824;51.178;13.546;2023-02-28T10:43:31;10.80;;;6.80;;
4420;SDS011;11824;51.178;13.546;2023-02-28T10:45:59;14.60;;;7.40;;
4420;SDS011;11824;51.178;13.546;2023-02-28T10:48:31;7.57;;;4.30;;
4420;SDS011;11824;51.178;13.546;2023-02-28T10:51:02;16.57;;;5.83;;
4420;SDS011;11824;51.178;13.546;2023-02-28T10:53:32;8.70;;;5.07;;
4420;SDS011;11824;51.178;13.546;2023-02-28T10:56:23;6.20;;;3.70;;
4420;SDS011;11824;51.178;13.546;2023-02-28T10:58:52;11.83;;;5.40;;
4420;SDS011;11824;51.178;13.546;2023-02-28T11:01:22;5.17;;;4.03;;
4420;SDS011;11824;51.178;13.546;2023-02-28T11:03:51;9.13;;;5.30;;
4420;SDS011;11824;51.178;13.546;2023-02-28T11:06:20;11.43;;;5.70;;
4420;SDS011;11824;51.178;13.546;2023-02-28T11:08:50;15.73;;;7.63;;
4420;SDS011;11824;51.178;13.546;2023-02-28T11:11:20;20.80;;;7.37;;
4420;SDS011;11824;51.178;13.546;2023-02-28T11:13:51;9.00;;;6.40;;
4420;SDS011;11824;51.178;13.546;2023-02-28T11:16:21;13.80;;;6.10;;
4420;SDS011;11824;51.178;13.546;2023-02-28T11:18:58;13.17;;;5.80;;
4420;SDS011;11824;51.178;13.546;2023-02-28T11:21:27;33.97;;;10.63;;
4420;SDS011;11824;51.178;13.546;2023-02-28T11:24:00;12.00;;;4.70;;
4420;SDS011;11824;51.178;13.546;2023-02-28T11:26:37;42.20;;;13.50;;
4420;SDS011;11824;51.178;13.546;2023-02-28T11:29:11;38.03;;;13.63;;
4420;SDS011;11824;51.178;13.546;2023-02-28T11:31:46;37.67;;;14.57;;
4420;SDS011;11824;51.178;13.546;2023-02-28T11:34:29;31.90;;;8.83;;
4420;SDS011;11824;51.178;13.546;2023-02-28T11:36:59;22.83;;;12.13;;
4420;SDS011;11824;51.178;13.546;2023-02-28T11:39:30;14.30;;;7.83;;
4420;SDS011;11824;51.178;13.546;2023-02-28T11:42:07;31.27;;;12.63;;
4420;SDS011;11824;51.178;13.546;2023-02-28T11:44:45;28.77;;;13.10;;
4420;SDS011;11824;51.178;13.546;2023-02-28T11:47:27;9.60;;;6.67;;
4420;SDS011;11824;51.178;13.546;2023-02-28T11:50:03;9.50;;;5.93;;
4420;SDS011;11824;51.178;13.546;2023-02-28T11:52:56;8.07;;;6.63;;
4420;SDS011;11824;51.178;13.546;2023-02-28T11:55:27;10.67;;;6.67;;
4420;SDS011;11824;51.178;13.546;2023-02-28T11:58:13;18.53;;;11.30;;
4420;SDS011;11824;51.178;13.546;2023-02-28T12:01:03;12.90;;;6.17;;
4420;SDS011;11824;51.178;13.546;2023-02-28T12:03:43;17.13;;;11.00;;
4420;SDS011;11824;51.178;13.546;2023-02-28T12:06:21;12.50;;;7.63;;
4420;SDS011;11824;51.178;13.546;2023-02-28T12:08:56;28.57;;;5.50;;
4420;SDS011;11824;51.178;13.546;2023-02-28T12:11:31;12.33;;;7.83;;
4420;SDS011;11824;51.178;13.546;2023-02-28T12:14:18;11.20;;;6.17;;
4420;SDS011;11824;51.178;13.546;2023-02-28T12:17:07;21.37;;;8.47;;
4420;SDS011;11824;51.178;13.546;2023-02-28T12:19:43;14.90;;;8.00;;
4420;SDS011;11824;51.178;13.546;2023-02-28T12:22:27;20.83;;;8.70;;
4420;SDS011;11824;51.178;13.546;2023-02-28T12:25:02;13.43;;;6.33;;
4420;SDS011;11824;51.178;13.546;2023-02-28T12:27:47;14.67;;;5.07;;
4420;SDS011;11824;51.178;13.546;2023-02-28T12:30:19;22.93;;;6.17;;
4420;SDS011;11824;51.178;13.546;2023-02-28T12:32:51;15.00;;;7.67;;
4420;SDS011;11824;51.178;13.546;2023-02-28T12:35:23;11.37;;;5.07;;
4420;SDS011;11824;51.178;13.546;2023-02-28T12:37:55;18.17;;;8.40;;
4420;SDS011;11824;51.178;13.546;2023-02-28T12:40:41;23.13;;;10.20;;
4420;SDS011;11824;51.178;13.546;2023-02-28T12:43:12;13.63;;;6.90;;
4420;SDS011;11824;51.178;13.546;2023-02-28T12:45:43;25.57;;;9.47;;
4420;SDS011;11824;51.178;13.546;2023-02-28T12:48:15;9.60;;;4.70;;
4420;SDS011;11824;51.178;13.546;2023-02-28T12:50:45;6.13;;;4.70;;
4420;SDS011;11824;51.178;13.546;2023-02-28T12:53:15;27.87;;;9.30;;
4420;SDS011;11824;51.178;13.546;2023-02-28T12:55:52;14.43;;;8.60;;
4420;SDS011;11824;51.178;13.546;2023-02-28T12:58:30;14.70;;;6.17;;
4420;SDS011;11824;51.178;13.546;2023-02-28T13:01:05;10.77;;;4.90;;
4420;SDS011;11824;51.178;13.546;2023-02-28T13:04:01;18.73;;;9.93;;
4420;SDS011;11824;51.178;13.546;2023-02-28T13:06:52;12.33;;;5.23;;
4420;SDS011;11824;51.178;13.546;2023-02-28T13:09:36;18.60;;;10.57;;
4420;SDS011;11824;51.178;13.546;2023-02-28T13:12:12;16.33;;;7.60;;
4420;SDS011;11824;51.178;13.546;2023-02-28T13:14:42;30.50;;;8.43;;
4420;SDS011;11824;51.178;13.546;2023-02-28T13:17:10;7.93;;;4.63;;
4420;SDS011;11824;51.178;13.546;2023-02-28T13:19:40;12.33;;;7.20;;
4420;SDS011;11824;51.178;13.546;2023-02-28T13:22:17;15.53;;;9.70;;
4420;SDS011;11824;51.178;13.546;2023-02-28T13:24:46;9.80;;;6.40;;
4420;SDS011;11824;51.178;13.546;2023-02-28T13:27:31;11.40;;;6.10;;
4420;SDS011;11824;51.178;13.546;2023-02-28T13:30:00;11.23;;;6.83;;
4420;SDS011;11824;51.178;13.546;2023-02-28T13:32:43;17.90;;;10.27;;
4420;SDS011;11824;51.178;13.546;2023-02-28T13:35:14;20.70;;;7.97;;
4420;SDS011;11824;51.178;13.546;2023-02-28T13:38:17;17.80;;;9.93;;
4420;SDS011;11824;51.178;13.546;2023-02-28T13:44:18;19.90;;;10.37;;
4420;SDS011;11824;51.178;13.546;2023-02-28T13:52:48;8.63;;;5.50;;
4420;SDS011;11824;51.178;13.546;2023-02-28T13:55:27;16.33;;;6.37;;
4420;SDS011;11824;51.178;13.546;2023-02-28T13:58:19;13.97;;;8.10;;
4420;SDS011;11824;51.178;13.546;2023-02-28T14:01:21;10.97;;;7.33;;
4420;SDS011;11824;51.178;13.546;2023-02-28T14:03:59;15.17;;;7.30;;
4420;SDS011;11824;51.178;13.546;2023-02-28T14:06:45;15.77;;;7.90;;
4420;SDS011;11824;51.178;13.546;2023-02-28T14:09:21;14.80;;;7.27;;
4420;SDS011;11824;51.178;13.546;2023-02-28T14:11:51;12.83;;;7.53;;
4420;SDS011;11824;51.178;13.546;2023-02-28T14:17:56;11.60;;;5.47;;
4420;SDS011;11824;51.178;13.546;2023-02-28T14:20:26;13.80;;;8.63;;
4420;SDS011;11824;51.178;13.546;2023-02-28T14:22:57;12.70;;;5.70;;
4420;SDS011;11824;51.178;13.546;2023-02-28T14:25:37;16.07;;;8.17;;
4420;SDS011;11824;51.178;13.546;2023-02-28T14:28:14;11.93;;;5.63;;
4420;SDS011;11824;51.178;13.546;2023-02-28T14:30:58;12.80;;;6.60;;
4420;SDS011;11824;51.178;13.546;2023-02-28T14:33:53;9.90;;;5.73;;
4420;SDS011;11824;51.178;13.546;2023-02-28T14:36:35;21.20;;;9.57;;
4420;SDS011;11824;51.178;13.546;2023-02-28T14:39:10;17.40;;;10.87;;
4420;SDS011;11824;51.178;13.546;2023-02-28T14:41:46;18.17;;;8.77;;
4420;SDS011;11824;51.178;13.546;2023-02-28T14:44:17;15.37;;;9.70;;
4420;SDS011;11824;51.178;13.546;2023-02-28T14:46:48;17.50;;;8.43;;
4420;SDS011;11824;51.178;13.546;2023-02-28T14:49:23;14.83;;;8.00;;
4420;SDS011;11824;51.178;13.546;2023-02-28T14:52:12;9.07;;;6.20;;
4420;SDS011;11824;51.178;13.546;2023-02-28T14:54:44;20.60;;;9.97;;
4420;SDS011;11824;51.178;13.546;2023-02-28T14:57:23;15.80;;;9.40;;
4420;SDS011;11824;51.178;13.546;2023-02-28T15:00:02;8.60;;;7.17;;
4420;SDS011;11824;51.178;13.546;2023-02-28T15:02:36;17.70;;;9.73;;
4420;SDS011;11824;51.178;13.546;2023-02-28T15:05:21;15.33;;;7.37;;
4420;SDS011;11824;51.178;13.546;2023-02-28T15:08:00;13.63;;;6.93;;
4420;SDS011;11824;51.178;13.546;2023-02-28T15:10:31;20.47;;;9.07;;
4420;SDS011;11824;51.178;13.546;2023-02-28T15:12:59;19.83;;;7.43;;
4420;SDS011;11824;51.178;13.546;2023-02-28T15:15:34;14.10;;;7.73;;
4420;SDS011;11824;51.178;13.546;2023-02-28T15:18:28;23.70;;;9.90;;
4420;SDS011;11824;51.178;13.546;2023-02-28T15:21:01;19.37;;;9.90;;
4420;SDS011;11824;51.178;13.546;2023-02-28T15:23:32;18.47;;;10.10;;
4420;SDS011;11824;51.178;13.546;2023-02-28T15:26:03;16.70;;;10.30;;
4420;SDS011;11824;51.178;13.546;2023-02-28T15:28:31;18.57;;;9.87;;